createdAt,value
2022-10-15T00:00:05.359Z,101199.19
2022-10-15T00:02:31.963Z,101183.28
2022-10-15T00:05:01.928Z,101198.19
2022-10-15T00:07:29.090Z,101195.22
2022-10-15T00:09:55.764Z,101214.66
2022-10-15T00:12:23.895Z,101213.81
2022-10-15T00:14:50.729Z,101203.19
2022-10-15T00:17:42.396Z,101222.53
2022-10-15T00:20:10.903Z,101231.22
2022-10-15T00:22:37.899Z,101236.03
2022-10-15T00:25:05.516Z,101250.91
2022-10-15T00:27:42.237Z,101249.56
2022-10-15T00:30:09.469Z,100978.56
2022-10-15T00:32:36.139Z,101218.72
2022-10-15T00:35:09.081Z,101244.19
2022-10-15T00:37:35.736Z,101250.03
2022-10-15T00:42:33.979Z,101263.06
2022-10-15T00:45:02.908Z,101270.19
2022-10-15T00:47:44.903Z,101279.06
2022-10-15T00:50:23.959Z,101267.50
2022-10-15T00:53:12.034Z,101263.50
2022-10-15T00:55:47.049Z,101275.97
2022-10-15T00:58:38.007Z,101279.69
2022-10-15T01:01:07.826Z,101271.47
2022-10-15T01:03:36.229Z,101261.75
2022-10-15T01:06:03.669Z,101263.78
2022-10-15T01:08:39.962Z,101266.47
2022-10-15T01:11:19.150Z,101238.59
2022-10-15T01:14:11.877Z,101222.25
2022-10-15T01:16:53.397Z,101214.41
2022-10-15T01:19:38.192Z,101208.19
2022-10-15T01:22:11.473Z,101197.94
2022-10-15T01:25:20.585Z,101180.06
2022-10-15T01:28:05.585Z,101189.13
2022-10-15T01:30:58.502Z,101195.41
2022-10-15T01:33:43.879Z,101185.16
2022-10-15T01:36:31.709Z,101189.88
2022-10-15T01:39:24.589Z,101190.50
2022-10-15T01:42:01.536Z,101190.31
2022-10-15T01:44:32.431Z,101175.34
2022-10-15T01:47:20.184Z,101166.38
2022-10-15T01:49:47.863Z,101162.19
2022-10-15T01:52:22.306Z,101143.75
2022-10-15T01:54:50.463Z,101137.34
2022-10-15T01:57:18.533Z,101149.13
2022-10-15T01:59:51.307Z,101130.16
2022-10-15T02:02:22.706Z,101040.31
2022-10-15T02:04:49.568Z,100966.81
2022-10-15T02:07:33.802Z,100893.31
2022-10-15T02:10:08.262Z,100859.38
2022-10-15T02:12:43.787Z,100850.69
2022-10-15T02:15:19.547Z,100844.84
2022-10-15T02:17:58.363Z,100825.56
2022-10-15T02:20:35.209Z,100810.78
2022-10-15T02:23:17.917Z,100806.50
2022-10-15T02:25:47.665Z,100806.28
2022-10-15T02:28:18.294Z,100806.34
2022-10-15T02:30:48.486Z,100792.72
2022-10-15T02:33:20.412Z,100772.13
2022-10-15T02:35:48.723Z,100772.56
2022-10-15T02:38:21.278Z,100777.34
2022-10-15T02:40:54.440Z,100769.94
2022-10-15T02:43:22.228Z,100776.38
2022-10-15T02:45:50.505Z,100794.38
2022-10-15T02:48:25.791Z,100781.97
2022-10-15T02:50:52.517Z,100770.84
2022-10-15T02:53:19.184Z,100759.34
2022-10-15T02:55:48.531Z,100758.81
2022-10-15T02:58:15.340Z,100764.09
2022-10-15T03:00:44.552Z,100761.81
2022-10-15T03:03:12.630Z,100748.03
2022-10-15T03:05:46.557Z,100759.34
2022-10-15T03:08:18.763Z,100758.72
2022-10-15T03:10:46.675Z,100735.16
2022-10-15T03:13:13.673Z,100737.28
2022-10-15T03:15:47.292Z,100734.13
2022-10-15T03:18:15.411Z,100728.03
2022-10-15T03:20:46.774Z,100741.63
2022-10-15T03:23:16.485Z,100748.91
2022-10-15T03:25:44.609Z,100742.44
2022-10-15T03:28:22.225Z,100728.84
2022-10-15T03:30:49.617Z,100720.56
2022-10-15T03:33:19.000Z,100732.56
2022-10-15T03:35:47.936Z,100728.78
2022-10-15T03:38:39.535Z,100739.31
2022-10-15T03:41:10.506Z,100737.94
2022-10-15T03:43:48.229Z,100734.34
2022-10-15T03:46:16.496Z,100749.00
2022-10-15T03:48:49.628Z,100720.06
2022-10-15T03:51:20.475Z,100731.19
2022-10-15T03:54:30.200Z,100724.19
2022-10-15T03:56:57.854Z,100708.31
2022-10-15T03:59:32.076Z,100720.75
2022-10-15T04:02:01.493Z,100720.94
2022-10-15T04:04:29.053Z,100736.69
2022-10-15T04:06:56.293Z,100722.22
2022-10-15T04:09:23.667Z,100704.03
2022-10-15T04:11:50.376Z,100704.25
2022-10-15T04:14:19.443Z,100705.28
2022-10-15T04:16:46.126Z,100701.56
2022-10-15T04:19:18.063Z,100698.88
2022-10-15T04:21:58.167Z,100698.88
2022-10-15T04:24:32.474Z,100683.38
2022-10-15T04:27:01.574Z,100687.25
2022-10-15T04:29:30.959Z,100694.88
2022-10-15T04:32:22.583Z,100699.47
2022-10-15T04:35:00.801Z,100691.59
2022-10-15T04:37:46.626Z,100680.97
2022-10-15T04:40:14.836Z,100693.19
2022-10-15T04:42:42.134Z,100684.50
2022-10-15T04:45:10.465Z,100685.13
2022-10-15T04:47:39.995Z,100666.53
2022-10-15T04:50:14.946Z,100654.00
2022-10-15T04:53:01.879Z,100651.94
2022-10-15T04:55:32.655Z,100647.78
2022-10-15T04:58:01.052Z,100644.56
2022-10-15T05:00:29.801Z,100630.75
2022-10-15T05:03:15.143Z,100636.06
2022-10-15T05:05:53.673Z,100658.09
2022-10-15T05:08:20.766Z,100637.72
2022-10-15T05:11:18.666Z,100653.69
2022-10-15T05:13:45.624Z,100661.97
2022-10-15T05:16:17.132Z,100672.13
2022-10-15T05:18:48.903Z,100671.44
2022-10-15T05:21:16.382Z,100689.81
2022-10-15T05:23:47.978Z,100685.72
2022-10-15T05:26:34.660Z,100673.56
2022-10-15T05:29:03.797Z,100681.16
2022-10-15T05:31:35.920Z,100694.78
2022-10-15T05:34:13.160Z,100696.22
2022-10-15T05:37:00.002Z,100699.09
2022-10-15T05:39:44.221Z,100709.66
2022-10-15T05:42:41.133Z,100709.28
2022-10-15T05:45:08.492Z,100704.31
2022-10-15T05:47:35.185Z,100651.25
2022-10-15T05:50:14.790Z,100712.06
2022-10-15T05:52:45.278Z,100726.09
2022-10-15T05:55:32.355Z,100719.19
2022-10-15T05:58:03.262Z,100689.97
2022-10-15T06:00:29.934Z,100713.38
2022-10-15T06:02:56.527Z,100731.25
2022-10-15T06:05:24.442Z,100694.09
2022-10-15T06:07:58.349Z,100707.28
2022-10-15T06:10:25.545Z,100719.09
2022-10-15T06:12:52.453Z,100736.22
2022-10-15T06:15:28.394Z,100729.22
2022-10-15T06:17:54.959Z,100733.38
2022-10-15T06:20:21.579Z,100727.88
2022-10-15T06:23:02.318Z,100701.03
2022-10-15T06:25:32.614Z,100684.13
2022-10-15T06:28:03.447Z,100680.63
2022-10-15T06:30:41.680Z,100691.19
2022-10-15T06:33:16.128Z,100683.94
2022-10-15T06:35:46.724Z,100676.72
2022-10-15T06:38:13.414Z,100678.56
2022-10-15T06:40:48.754Z,100688.50
2022-10-15T06:49:19.916Z,100712.69
2022-10-15T06:59:10.670Z,100752.78
2022-10-15T07:01:39.928Z,100744.53
2022-10-15T07:04:08.864Z,100747.41
2022-10-15T07:06:35.775Z,100744.88
2022-10-15T07:09:03.159Z,100762.28
2022-10-15T07:11:29.831Z,100752.56
2022-10-15T07:13:59.666Z,100752.97
2022-10-15T07:16:26.606Z,100751.53
2022-10-15T07:19:05.136Z,100763.31
2022-10-15T07:21:32.112Z,100765.41
2022-10-15T07:26:42.345Z,100990.84
2022-10-15T07:29:16.670Z,100950.94
2022-10-15T07:34:13.108Z,100942.03
2022-10-15T07:37:06.215Z,100923.81
2022-10-15T07:39:39.118Z,100926.19
2022-10-15T07:42:16.559Z,100927.97
2022-10-15T07:44:43.235Z,100926.53
2022-10-15T07:47:12.261Z,100926.59
2022-10-15T07:49:51.585Z,100924.06
2022-10-15T07:52:31.284Z,100906.09
2022-10-15T07:54:58.167Z,100911.13
2022-10-15T07:57:24.885Z,100897.66
2022-10-15T08:00:15.440Z,100876.78
2022-10-15T08:02:45.595Z,100867.94
2022-10-15T08:05:14.785Z,100859.66
2022-10-15T08:07:50.748Z,100853.25
2022-10-15T08:10:19.655Z,100865.69
2022-10-15T08:12:46.306Z,100872.50
2022-10-15T08:15:13.045Z,100864.88
2022-10-15T08:17:42.916Z,100856.16
2022-10-15T08:20:10.476Z,100849.31
2022-10-15T08:22:37.349Z,100830.09
2022-10-15T08:25:04.501Z,100823.84
2022-10-15T08:27:31.375Z,100833.09
2022-10-15T08:30:04.585Z,100807.44
2022-10-15T08:32:31.254Z,100802.06
2022-10-15T08:34:57.883Z,100788.19
2022-10-15T08:37:24.813Z,100771.59
2022-10-15T08:39:51.515Z,100758.06
2022-10-15T08:42:30.692Z,100747.66
2022-10-15T08:45:08.897Z,100738.66
2022-10-15T08:48:18.428Z,100713.63
2022-10-15T08:51:00.107Z,100677.97
2022-10-15T08:53:28.358Z,100652.00
2022-10-15T08:56:02.769Z,100629.94
2022-10-15T08:58:51.893Z,100591.06
2022-10-15T09:01:38.624Z,100575.72
2022-10-15T09:04:17.358Z,100553.47
2022-10-15T09:06:44.655Z,100532.91
2022-10-15T09:09:27.539Z,100502.06
2022-10-15T09:12:25.959Z,100493.03
2022-10-15T09:14:57.013Z,100468.50
2022-10-15T09:17:25.969Z,100459.66
2022-10-15T09:19:57.517Z,100436.91
2022-10-15T09:22:30.193Z,100411.25
2022-10-15T09:24:57.089Z,100386.81
2022-10-15T09:27:35.008Z,100355.97
2022-10-15T09:30:13.536Z,100324.31
2022-10-15T09:32:51.970Z,100310.94
2022-10-15T09:35:25.654Z,100274.44
2022-10-15T09:38:01.118Z,100253.50
2022-10-15T09:40:48.883Z,100231.84
2022-10-15T09:43:20.790Z,100212.44
2022-10-15T09:45:47.420Z,100194.63
2022-10-15T09:48:18.813Z,100180.66
2022-10-15T09:50:58.664Z,100171.41
2022-10-15T09:53:28.364Z,100164.03
2022-10-15T09:56:08.043Z,100152.88
2022-10-15T09:58:40.473Z,100138.81
2022-10-15T10:01:08.278Z,100108.13
2022-10-15T10:03:38.995Z,100088.78
2022-10-15T10:06:11.250Z,100080.53
2022-10-15T10:08:51.949Z,100064.84
2022-10-15T10:11:20.421Z,100034.75
2022-10-15T10:13:57.110Z,100023.28
2022-10-15T10:16:24.028Z,100004.81
2022-10-15T10:19:05.876Z,99978.75
2022-10-15T10:21:34.769Z,99944.97
2022-10-15T10:24:30.714Z,99939.25
2022-10-15T10:26:58.684Z,99923.50
2022-10-15T10:29:33.983Z,99893.16
2022-10-15T10:32:11.131Z,99858.63
2022-10-15T10:34:37.804Z,99831.38
2022-10-15T10:37:06.621Z,99812.09
2022-10-15T10:39:34.910Z,99785.88
2022-10-15T10:42:01.541Z,99772.25
2022-10-15T10:44:28.084Z,99751.41
2022-10-15T10:47:23.194Z,99732.13
2022-10-15T10:50:08.573Z,99707.91
2022-10-15T10:52:37.377Z,99699.13
2022-10-15T10:55:20.074Z,99677.28
2022-10-15T10:57:58.353Z,99672.00
2022-10-15T11:00:44.234Z,99653.88
2022-10-15T11:03:23.067Z,99631.06
2022-10-15T11:06:12.198Z,99620.28
2022-10-15T11:08:44.399Z,99605.84
2022-10-15T11:11:32.942Z,99580.78
2022-10-15T11:14:27.285Z,99580.75
2022-10-15T11:17:05.427Z,99556.63
2022-10-15T11:20:05.659Z,99537.25
2022-10-15T11:22:55.584Z,99520.50
2022-10-15T11:25:38.779Z,99505.38
2022-10-15T11:28:20.196Z,99484.84
2022-10-15T11:30:59.754Z,99472.41
2022-10-15T11:33:47.867Z,99467.44
2022-10-15T11:36:54.845Z,99465.28
2022-10-15T11:39:49.147Z,99450.81
2022-10-15T11:42:29.147Z,99435.16
2022-10-15T11:45:33.429Z,99439.75
2022-10-15T11:48:27.163Z,99440.63
2022-10-15T11:52:04.076Z,99432.44
2022-10-15T11:54:43.496Z,99424.72
2022-10-15T11:57:21.599Z,99409.94
2022-10-15T12:00:11.847Z,99404.22
2022-10-15T12:02:42.692Z,99407.97
2022-10-15T12:05:30.015Z,99403.44
2022-10-15T12:08:01.267Z,99398.22
2022-10-15T12:10:37.085Z,99392.81
2022-10-15T12:13:23.092Z,99403.38
2022-10-15T12:15:52.602Z,99400.97
2022-10-15T12:18:48.603Z,99391.56
2022-10-15T12:21:36.634Z,99376.91
2022-10-15T12:24:07.082Z,99366.66
2022-10-15T12:26:34.736Z,99369.91
2022-10-15T12:29:16.678Z,99358.84
2022-10-15T12:31:46.163Z,99354.78
2022-10-15T12:34:28.553Z,99343.16
2022-10-15T12:37:17.500Z,99342.31
2022-10-15T12:39:52.442Z,99332.56
2022-10-15T12:42:27.323Z,99323.91
2022-10-15T12:44:57.518Z,99328.50
2022-10-15T12:47:56.421Z,99324.97
2022-10-15T12:50:25.855Z,99311.66
2022-10-15T12:52:54.298Z,99311.69
2022-10-15T12:55:28.405Z,99303.31
2022-10-15T12:58:14.648Z,99306.53
2022-10-15T13:00:43.971Z,99294.84
2022-10-15T13:03:13.553Z,99291.25
2022-10-15T13:05:40.220Z,99288.25
2022-10-15T13:08:13.909Z,99279.63
2022-10-15T13:10:54.917Z,99279.72
2022-10-15T13:13:24.999Z,99278.31
2022-10-15T13:16:02.376Z,99277.28
2022-10-15T13:18:30.858Z,99273.47
2022-10-15T13:20:57.916Z,99280.41
2022-10-15T13:23:33.252Z,99274.47
2022-10-15T13:26:12.168Z,99265.41
2022-10-15T13:28:42.123Z,99269.56
2022-10-15T13:31:24.737Z,99271.16
2022-10-15T13:33:56.501Z,99264.88
2022-10-15T13:36:24.933Z,99268.53
2022-10-15T13:38:56.886Z,99262.41
2022-10-15T13:41:43.867Z,99265.88
2022-10-15T13:44:24.166Z,99267.84
2022-10-15T13:46:51.308Z,99267.81
2022-10-15T13:49:18.536Z,99270.78
2022-10-15T13:51:47.672Z,99268.91
2022-10-15T13:54:24.281Z,99266.47
2022-10-15T13:56:59.475Z,99266.22
2022-10-15T13:59:28.778Z,99271.97
2022-10-15T14:02:04.505Z,99269.22
2022-10-15T14:04:33.016Z,99288.16
2022-10-15T14:07:05.481Z,99287.34
2022-10-15T14:09:34.190Z,99293.34
2022-10-15T14:12:03.041Z,99304.44
2022-10-15T14:14:41.814Z,99321.50
2022-10-15T14:17:20.785Z,99326.63
2022-10-15T14:20:14.403Z,99342.84
2022-10-15T14:22:39.897Z,99352.00
2022-10-15T14:25:10.635Z,99371.38
2022-10-15T14:27:37.238Z,99399.44
2022-10-15T14:30:22.406Z,99435.91
2022-10-15T14:32:52.761Z,99454.06
2022-10-15T14:35:36.412Z,99483.53
2022-10-15T14:38:25.134Z,99505.13
2022-10-15T14:41:25.992Z,99529.91
2022-10-15T14:44:01.886Z,99556.06
2022-10-15T14:46:36.961Z,99590.03
2022-10-15T14:49:03.698Z,99617.66
2022-10-15T14:51:30.411Z,99669.00
2022-10-15T14:53:57.037Z,99719.34
2022-10-15T14:56:26.097Z,99795.19
2022-10-15T14:58:56.613Z,99888.69
2022-10-15T15:01:23.731Z,99991.69
2022-10-15T15:03:53.436Z,100064.59
2022-10-15T15:06:23.214Z,100137.41
2022-10-15T15:08:50.062Z,100233.19
2022-10-15T15:11:22.686Z,100342.25
2022-10-15T15:13:55.542Z,100449.66
2022-10-15T15:16:25.102Z,100590.44
2022-10-15T15:18:53.015Z,100704.53
2022-10-15T15:21:24.841Z,100808.13
2022-10-15T15:23:51.621Z,100873.97
2022-10-15T15:26:18.406Z,100928.44
2022-10-15T15:28:45.123Z,100964.50
2022-10-15T15:31:17.285Z,100998.66
2022-10-15T15:33:43.999Z,101019.81
2022-10-15T15:36:17.588Z,101030.44
2022-10-15T15:38:47.442Z,101032.47
2022-10-15T15:41:19.000Z,101023.75
2022-10-15T15:43:46.063Z,101011.31
2022-10-15T15:46:13.142Z,101000.94
2022-10-15T15:48:39.808Z,100981.84
2022-10-15T15:51:20.330Z,100968.97
2022-10-15T15:53:47.057Z,100961.72
2022-10-15T15:56:16.744Z,100940.72
2022-10-15T15:58:43.434Z,100938.63
2022-10-15T16:01:10.089Z,100920.78
2022-10-15T16:03:36.746Z,100903.72
2022-10-15T16:06:07.315Z,100899.47
2022-10-15T16:08:35.423Z,100876.63
2022-10-15T16:11:02.975Z,100867.56
2022-10-15T16:13:30.024Z,100854.78
2022-10-15T16:16:07.246Z,100843.25
2022-10-15T16:18:33.952Z,100827.97
2022-10-15T16:21:00.590Z,100836.22
2022-10-15T16:23:27.188Z,100821.19
2022-10-15T16:25:54.953Z,100823.69
2022-10-15T16:28:24.711Z,100822.66
2022-10-15T16:30:51.430Z,100827.44
2022-10-15T16:33:18.099Z,100818.59
2022-10-15T16:35:44.871Z,100816.31
2022-10-15T16:38:11.514Z,100829.38
2022-10-15T16:41:03.515Z,100830.25
2022-10-15T16:43:30.155Z,100838.69
2022-10-15T16:45:57.835Z,100841.81
2022-10-15T16:48:26.426Z,100840.00
2022-10-15T16:51:11.211Z,100846.22
2022-10-15T16:53:43.431Z,100860.13
2022-10-15T16:56:24.281Z,100858.44
2022-10-15T16:58:51.059Z,100865.28
2022-10-15T17:01:21.121Z,100871.91
2022-10-15T17:03:52.333Z,100895.91
2022-10-15T17:06:24.560Z,100911.69
2022-10-15T17:08:54.782Z,100912.50
2022-10-15T17:11:41.076Z,100910.81
2022-10-15T17:14:15.680Z,100911.19
2022-10-15T17:16:43.614Z,100909.16
2022-10-15T17:19:11.935Z,100902.81
2022-10-15T17:21:46.908Z,100903.69
2022-10-15T17:24:15.644Z,100901.16
2022-10-15T17:26:43.379Z,100913.69
2022-10-15T17:29:20.641Z,100904.22
2022-10-15T17:31:58.736Z,100899.84
2022-10-15T17:34:27.864Z,100894.63
2022-10-15T17:36:56.196Z,100897.66
2022-10-15T17:39:26.958Z,100896.47
2022-10-15T17:41:53.805Z,100898.13
2022-10-15T17:44:23.525Z,100895.00
2022-10-15T17:47:04.095Z,100893.13
2022-10-15T17:49:30.778Z,100890.59
2022-10-15T17:51:59.671Z,100889.41
2022-10-15T17:54:29.008Z,100889.84
2022-10-15T17:56:55.732Z,100896.56
2022-10-15T17:59:22.365Z,100901.81
2022-10-15T18:02:04.464Z,100901.59
2022-10-15T18:04:44.554Z,100886.69
2022-10-15T18:07:11.655Z,100882.19
2022-10-15T18:09:41.429Z,100880.00
2022-10-15T18:12:22.729Z,100872.00
2022-10-15T18:15:03.671Z,100884.72
2022-10-15T18:17:53.185Z,100879.97
2022-10-15T18:20:18.025Z,100874.56
2022-10-15T18:22:58.487Z,100872.91
2022-10-15T18:25:25.929Z,100876.88
2022-10-15T18:28:01.731Z,100888.44
2022-10-15T18:30:30.026Z,100890.81
2022-10-15T18:32:58.258Z,100883.63
2022-10-15T18:35:35.422Z,100901.84
2022-10-15T18:38:28.655Z,100895.66
2022-10-15T18:41:21.521Z,100897.31
2022-10-15T18:44:00.086Z,100896.97
2022-10-15T18:46:34.024Z,100896.28
2022-10-15T18:49:08.525Z,100891.75
2022-10-15T18:51:37.805Z,100893.91
2022-10-15T18:54:04.713Z,100899.91
2022-10-15T18:56:38.884Z,100854.31
2022-10-15T18:59:05.563Z,100892.69
2022-10-15T19:01:45.469Z,100896.44
2022-10-15T19:04:19.836Z,100929.84
2022-10-15T19:06:57.747Z,100925.06
2022-10-15T19:09:26.309Z,100927.50
2022-10-15T19:11:59.034Z,100904.78
2022-10-15T19:14:31.833Z,100907.91
2022-10-15T19:16:58.610Z,100906.63
2022-10-15T19:19:31.719Z,100898.78
2022-10-15T19:21:59.160Z,100893.34
2022-10-15T19:24:30.661Z,100923.81
2022-10-15T19:26:57.606Z,100930.69
2022-10-15T19:29:35.205Z,100923.66
2022-10-15T19:32:28.338Z,100918.88
2022-10-15T19:34:58.526Z,100930.94
2022-10-15T19:37:27.565Z,100924.69
2022-10-15T19:40:03.799Z,100937.75
2022-10-15T19:42:30.523Z,100935.91
2022-10-15T19:44:59.672Z,100950.38
2022-10-15T19:47:30.024Z,100948.16
2022-10-15T19:50:01.704Z,100947.53
2022-10-15T19:52:28.605Z,100958.75
2022-10-15T19:54:55.276Z,100955.44
2022-10-15T19:57:42.353Z,100952.31
2022-10-15T20:00:16.875Z,100948.81
2022-10-15T20:02:43.598Z,100940.75
2022-10-15T20:05:10.275Z,100935.59
2022-10-15T20:07:44.202Z,100925.03
2022-10-15T20:10:12.133Z,100924.84
2022-10-15T20:12:39.028Z,100913.88
2022-10-15T20:15:06.467Z,100902.28
2022-10-15T20:17:35.498Z,100902.94
2022-10-15T20:20:05.738Z,100890.72
2022-10-15T20:22:32.346Z,100882.03
2022-10-15T20:24:58.997Z,100869.00
2022-10-15T20:27:32.843Z,100858.84
2022-10-15T20:29:59.588Z,100855.09
2022-10-15T20:32:41.515Z,100836.72
2022-10-15T20:35:09.029Z,100828.84
2022-10-15T20:37:35.613Z,100810.66
2022-10-15T20:40:02.220Z,100805.22
2022-10-15T20:42:39.145Z,100792.63
2022-10-15T20:45:07.907Z,100778.31
2022-10-15T20:47:35.659Z,100770.66
2022-10-15T20:50:13.833Z,100772.50
2022-10-15T20:52:43.518Z,100753.72
2022-10-15T20:55:13.191Z,100756.81
2022-10-15T20:57:39.996Z,100746.84
2022-10-15T21:00:08.225Z,100737.75
2022-10-15T21:02:35.597Z,100746.41
2022-10-15T21:05:07.058Z,100741.84
2022-10-15T21:07:34.123Z,100752.19
2022-10-15T21:10:01.021Z,100748.25
2022-10-15T21:12:27.950Z,100755.25
2022-10-15T21:14:54.836Z,100751.09
2022-10-15T21:17:31.531Z,100760.97
2022-10-15T21:19:58.184Z,100759.31
2022-10-15T21:22:27.557Z,100768.41
2022-10-15T21:24:54.183Z,100771.91
2022-10-15T21:27:21.344Z,100770.25
2022-10-15T21:29:55.000Z,100768.19
2022-10-15T21:32:35.241Z,100770.25
2022-10-15T21:35:04.873Z,100768.13
2022-10-15T21:37:36.063Z,100760.06
2022-10-15T21:40:04.056Z,100767.06
2022-10-15T21:42:30.844Z,100774.03
2022-10-15T21:44:58.281Z,100780.63
2022-10-15T21:47:33.299Z,100785.16
2022-10-15T21:49:59.903Z,100792.38
2022-10-15T21:52:26.467Z,100780.78
2022-10-15T21:55:02.816Z,100777.66
2022-10-15T21:57:29.411Z,100780.94
2022-10-15T21:59:59.839Z,100780.94
2022-10-15T22:02:33.670Z,100790.41
2022-10-15T22:05:00.417Z,100795.16
2022-10-15T22:07:27.394Z,100799.25
2022-10-15T22:10:06.046Z,100808.88
2022-10-15T22:12:32.686Z,100816.09
2022-10-15T22:14:59.465Z,100811.25
2022-10-15T22:17:32.656Z,100822.00
2022-10-15T22:19:59.219Z,100819.31
2022-10-15T22:22:26.218Z,100833.56
2022-10-15T22:25:05.546Z,100843.19
2022-10-15T22:27:33.260Z,100842.53
2022-10-15T22:29:59.925Z,100851.72
2022-10-15T22:32:37.966Z,100856.22
2022-10-15T22:35:04.801Z,100856.41
2022-10-15T22:37:31.527Z,100849.44
2022-10-15T22:39:59.187Z,100853.22
2022-10-15T22:42:28.383Z,100845.47
2022-10-15T22:44:55.158Z,100856.03
2022-10-15T22:47:27.839Z,100838.78
2022-10-15T22:49:54.654Z,100839.56
2022-10-15T22:52:24.849Z,100834.94
2022-10-15T22:54:58.986Z,100831.19
2022-10-15T22:57:25.723Z,100813.97
2022-10-15T22:59:58.578Z,100814.97
2022-10-15T23:02:28.568Z,100826.63
2022-10-15T23:04:55.364Z,100821.88
2022-10-15T23:07:24.712Z,100816.69
2022-10-15T23:09:51.424Z,100823.44
2022-10-15T23:12:18.031Z,100831.22
2022-10-15T23:14:44.729Z,100830.41
2022-10-15T23:17:11.403Z,100847.81
2022-10-15T23:19:42.616Z,100852.16
2022-10-15T23:22:10.891Z,100855.44
2022-10-15T23:24:37.552Z,100864.91
2022-10-15T23:27:04.141Z,100857.72
2022-10-15T23:29:30.804Z,100863.63
2022-10-15T23:31:57.520Z,100864.28
2022-10-15T23:34:28.461Z,100876.47
2022-10-15T23:36:55.050Z,100876.97
2022-10-15T23:39:25.019Z,100879.84
2022-10-15T23:41:51.776Z,100877.91
2022-10-15T23:44:21.539Z,100876.25
2022-10-15T23:46:48.235Z,100879.47
2022-10-15T23:49:15.037Z,100874.81
2022-10-15T23:51:41.734Z,100880.78
2022-10-15T23:54:17.828Z,100892.63
2022-10-15T23:56:45.810Z,100871.75
2022-10-15T23:59:12.485Z,100871.25
